Time;durP1;ratioP1;P1;durP2;ratioP2;P2;SDS_P1;SDS_P2;PMS_P1;PMS_P2;Temp;Humidity;BMP_temperature;BMP_pressure;BME280_temperature;BME280_humidity;BME280_pressure;Samples;Min_cycle;Max_cycle;Signal;HPM_P1;HPM_P2
2022/06/05 00:00:13;;;;;;;11.18;5.88;;;;;;;16.20;72.31;101895.41;6265352;22;20000;-60
2022/06/05 00:02:59;;;;;;;;;;;;;;;16.02;72.99;101899.66;6269189;22;20000;-61
2022/06/05 00:05:46;;;;;;;8.38;6.15;;;;;;;15.99;73.13;101897.13;6240964;22;19907;-61
2022/06/05 00:08:17;;;;;;;11.20;5.75;;;;;;;15.97;73.13;101901.63;6215964;22;20495;-61
2022/06/05 00:10:52;;;;;;;10.77;6.25;;;;;;;16.07;72.78;101903.00;6267273;22;20451;-60
2022/06/05 00:13:46;;;;;;;11.88;6.50;;;;;;;16.07;72.64;101908.31;6267553;22;20000;-60
2022/06/05 00:16:16;;;;;;;12.38;6.30;;;;;;;15.81;73.62;101906.66;6267068;22;20051;-61
2022/06/05 00:18:42;;;;;;;16.67;7.03;;;;;;;15.81;73.46;101901.34;6267624;22;20004;-61
2022/06/05 00:21:09;;;;;;;11.18;5.78;;;;;;;15.86;73.28;101908.22;6266553;22;20007;-62
2022/06/05 00:23:35;;;;;;;11.23;6.60;;;;;;;15.97;72.90;101899.84;6268299;22;20325;-60
2022/06/05 00:26:21;;;;;;;8.48;5.63;;;;;;;15.87;73.24;101901.97;6267156;22;20007;-61
2022/06/05 00:29:20;;;;;;;9.75;5.57;;;;;;;16.02;72.76;101892.53;6268656;22;20007;-60
2022/06/05 00:31:55;;;;;;;7.40;5.57;;;;;;;15.87;72.91;101891.31;6267376;22;20065;-60
2022/06/05 00:34:20;;;;;;;13.85;6.65;;;;;;;15.84;72.95;101891.47;6240972;22;20004;-61
2022/06/05 00:37:23;;;;;;;12.98;6.35;;;;;;;15.52;74.35;101874.97;6238640;22;19996;-61
2022/06/05 00:40:03;;;;;;;11.23;5.90;;;;;;;15.71;73.69;101877.78;6142999;23;20434;-61
2022/06/05 00:42:31;;;;;;;12.43;6.88;;;;;;;15.82;73.32;101868.53;6255162;22;20026;-61
2022/06/05 00:44:59;;;;;;;13.43;6.97;;;;;;;15.66;73.69;101861.19;6241175;22;20000;-59
2022/06/05 00:47:27;;;;;;;10.20;6.18;;;;;;;15.74;73.32;101864.38;6267587;22;20437;-60
2022/06/05 00:50:07;;;;;;;11.60;6.55;;;;;;;15.43;74.28;101859.38;6268310;22;20305;-60
2022/06/05 00:52:35;;;;;;;13.43;7.07;;;;;;;15.45;74.17;101855.78;6239792;22;20011;-61
2022/06/05 00:55:02;;;;;;;10.52;6.88;;;;;;;15.64;73.69;101861.25;6268816;22;19999;-61
2022/06/05 00:57:29;;;;;;;8.77;6.63;;;;;;;15.73;73.14;101856.47;6268777;22;20008;-61
2022/06/05 00:59:55;;;;;;;10.02;6.10;;;;;;;15.83;72.80;101851.69;6266875;22;20045;-61
2022/06/05 01:02:20;;;;;;;15.50;6.78;;;;;;;15.72;73.06;101862.72;6241902;22;20214;-61
2022/06/05 01:04:48;;;;;;;12.90;7.00;;;;;;;15.53;73.89;101868.72;6269259;22;20182;-61
2022/06/05 01:07:14;;;;;;;8.88;5.97;;;;;;;15.77;73.14;101868.69;6272020;22;20016;-60
2022/06/05 01:09:42;;;;;;;9.57;5.75;;;;;;;15.87;72.80;101859.44;6269953;22;20003;-60
2022/06/05 01:12:11;;;;;;;13.40;6.90;;;;;;;15.81;73.02;101845.53;6243113;22;20076;-63
2022/06/05 01:14:45;;;;;;;11.60;6.53;;;;;;;15.64;73.54;101839.09;6269286;22;20004;-61
2022/06/05 01:17:32;;;;;;;12.20;6.45;;;;;;;15.61;73.88;101845.41;6269186;22;20372;-61
2022/06/05 01:20:07;;;;;;;10.10;6.10;;;;;;;15.70;73.16;101851.28;6269703;22;20008;-61
2022/06/05 01:23:09;;;;;;;14.65;7.00;;;;;;;15.66;73.53;101856.72;6269974;22;20343;-61
2022/06/05 01:25:47;;;;;;;12.75;7.07;;;;;;;15.61;73.79;101864.00;6270223;22;20008;-61
2022/06/05 01:28:17;;;;;;;10.60;6.85;;;;;;;15.43;74.46;101870.00;6270115;22;20191;-60
2022/06/05 01:30:49;;;;;;;11.77;6.40;;;;;;;15.62;73.66;101868.38;6268919;22;20079;-60
2022/06/05 01:33:20;;;;;;;9.10;6.03;;;;;;;15.66;73.42;101872.66;6269978;22;20003;-61
2022/06/05 01:35:54;;;;;;;14.55;6.32;;;;;;;15.77;73.33;101885.53;6241395;22;20363;-61
2022/06/05 01:38:30;;;;;;;14.20;6.30;;;;;;;15.64;73.76;101916.16;6241616;22;20078;-61
2022/06/05 01:41:00;;;;;;;13.23;6.07;;;;;;;15.84;73.43;101957.91;6242983;22;20000;-60
2022/06/05 01:43:30;;;;;;;9.05;6.22;;;;;;;15.99;72.56;101950.28;6241161;22;19988;-60
2022/06/05 01:46:00;;;;;;;10.88;6.97;;;;;;;15.95;72.70;101924.75;6269542;22;20008;-60
2022/06/05 01:48:50;;;;;;;11.13;6.72;;;;;;;15.93;72.79;101938.09;6267844;22;20011;-60
2022/06/05 01:51:51;;;;;;;16.17;6.57;;;;;;;16.01;72.83;101957.28;6242231;22;20003;-60
2022/06/05 01:54:22;;;;;;;9.63;5.72;;;;;;;16.16;72.32;101945.16;6268318;22;20007;-60
2022/06/05 01:56:53;;;;;;;10.52;7.10;;;;;;;15.99;72.79;101910.44;6242526;22;20007;-61
2022/06/05 01:59:42;;;;;;;12.60;6.85;;;;;;;15.94;73.37;101912.34;6241832;22;20004;-61
2022/06/05 02:02:11;;;;;;;10.45;6.07;;;;;;;16.04;72.97;101940.34;6268130;22;20007;-61
2022/06/05 02:04:43;;;;;;;9.90;6.38;;;;;;;16.13;72.38;101947.94;6242651;22;20324;-60
2022/06/05 02:07:16;;;;;;;11.65;6.72;;;;;;;16.10;72.13;101933.94;6269190;22;20014;-60
2022/06/05 02:09:56;;;;;;;11.32;6.20;;;;;;;15.96;72.39;101913.16;6241107;22;20014;-61
2022/06/05 02:12:22;;;;;;;11.70;6.80;;;;;;;16.05;72.31;101915.50;6239749;22;20008;-61
2022/06/05 02:14:48;;;;;;;16.98;6.65;;;;;;;15.99;72.51;101905.13;6240487;22;20020;-61
2022/06/05 02:17:14;;;;;;;14.25;6.18;;;;;;;16.01;71.89;101903.25;6267401;22;20534;-60
2022/06/05 02:19:39;;;;;;;12.27;6.68;;;;;;;16.10;71.76;101900.22;6269536;22;20042;-61
2022/06/05 02:22:17;;;;;;;10.48;6.38;;;;;;;15.93;72.70;101884.94;6267628;22;20309;-61
2022/06/05 02:24:43;;;;;;;11.40;7.07;;;;;;;15.96;72.48;101874.22;6269498;22;20014;-60
2022/06/05 02:27:08;;;;;;;14.55;6.38;;;;;;;15.97;72.44;101865.31;6268657;22;20000;-61
2022/06/05 02:29:35;;;;;;;11.68;6.35;;;;;;;15.95;73.27;101863.59;6268290;22;20017;-61
2022/06/05 02:32:13;;;;;;;11.48;6.90;;;;;;;15.92;73.98;101862.78;6241572;22;20416;-60
2022/06/05 02:34:44;;;;;;;13.90;6.88;;;;;;;15.89;74.47;101851.41;6241789;22;20096;-60
2022/06/05 02:37:34;;;;;;;14.65;7.53;;;;;;;15.88;74.77;101847.91;6239631;22;20004;-60
2022/06/05 02:40:18;;;;;;;10.98;7.45;;;;;;;15.76;75.66;101830.66;6241863;22;20030;-60
2022/06/05 02:43:01;;;;;;;16.10;8.00;;;;;;;15.77;75.51;101829.72;6268132;22;20011;-61
2022/06/05 02:45:37;;;;;;;16.17;8.00;;;;;;;15.77;75.53;101818.22;6241730;22;20004;-60
2022/06/05 02:48:17;;;;;;;14.02;8.25;;;;;;;15.65;76.95;101812.47;6240396;22;20371;-61
2022/06/05 02:50:46;;;;;;;11.75;8.23;;;;;;;15.57;77.84;101803.97;6268631;22;20253;-60
2022/06/05 02:53:12;;;;;;;14.68;8.70;;;;;;;15.50;77.30;101791.84;6241097;22;20424;-61
2022/06/05 02:55:38;;;;;;;13.55;8.25;;;;;;;15.47;78.10;101781.34;6268311;22;20000;-62
2022/06/05 02:58:04;;;;;;;14.10;8.18;;;;;;;15.40;78.08;101770.97;6266684;22;20006;-60
2022/06/05 03:00:32;;;;;;;18.85;8.68;;;;;;;15.43;78.18;101767.31;6267175;22;20000;-60
2022/06/05 03:05:42;;;;;;;16.92;9.18;;;;;;;15.32;78.06;101757.13;6267739;22;20453;-60
2022/06/05 03:08:10;;;;;;;13.10;8.50;;;;;;;15.28;78.45;101752.84;6268317;22;20007;-61
2022/06/05 03:10:36;;;;;;;15.00;8.33;;;;;;;15.31;78.35;101747.44;6269407;22;20004;-61
2022/06/05 03:13:01;;;;;;;12.95;9.45;;;;;;;15.31;78.40;101738.59;6267887;22;20065;-62
2022/06/05 03:15:28;;;;;;;13.20;8.68;;;;;;;15.24;78.90;101740.63;6269138;22;20490;-61
2022/06/05 03:17:53;;;;;;;16.05;8.98;;;;;;;15.03;79.23;101730.78;6268500;22;20393;-62
2022/06/05 03:20:19;;;;;;;13.60;8.90;;;;;;;14.96;79.55;101729.28;6268334;22;20008;-61
2022/06/05 03:22:44;;;;;;;16.90;9.35;;;;;;;14.94;80.04;101731.16;6268135;22;20000;-61
2022/06/05 03:25:15;;;;;;;14.95;9.35;;;;;;;15.01;80.36;101726.47;6267374;22;20037;-60
2022/06/05 03:27:40;;;;;;;12.52;9.45;;;;;;;14.99;80.81;101720.38;6268473;22;20029;-60
2022/06/05 03:30:06;;;;;;;12.90;10.05;;;;;;;15.03;79.90;101717.50;6265852;22;20363;-59
2022/06/05 03:32:32;;;;;;;15.55;9.02;;;;;;;15.00;79.89;101706.16;6267500;22;20030;-62
2022/06/05 03:34:57;;;;;;;15.77;10.07;;;;;;;14.96;79.62;101712.50;6269302;22;20008;-59
2022/06/05 03:37:22;;;;;;;19.15;10.65;;;;;;;14.89;80.28;101717.19;6267484;22;20440;-61
2022/06/05 03:39:48;;;;;;;13.00;9.10;;;;;;;14.84;79.59;101693.47;6267733;22;20305;-60
2022/06/05 03:42:13;;;;;;;18.20;9.65;;;;;;;14.85;80.08;101697.88;6268025;22;20008;-60
2022/06/05 03:44:40;;;;;;;12.77;9.40;;;;;;;14.79;80.06;101679.53;6265985;22;20011;-60
2022/06/05 03:47:06;;;;;;;17.88;9.85;;;;;;;14.67;80.18;101680.84;6241115;22;20381;-63
2022/06/05 03:49:33;;;;;;;14.48;10.35;;;;;;;14.44;80.82;101677.25;6268237;22;20030;-61
2022/06/05 03:51:58;;;;;;;20.55;9.85;;;;;;;14.56;80.90;101678.56;6268042;22;20122;-60
2022/06/05 03:54:24;;;;;;;17.00;10.35;;;;;;;14.39;81.20;101672.09;6267611;22;20436;-62
2022/06/05 03:56:49;;;;;;;16.60;9.95;;;;;;;14.51;81.20;101694.66;6268118;22;19999;-60
2022/06/05 03:59:15;;;;;;;16.60;10.73;;;;;;;14.78;80.06;101710.50;6268538;22;20011;-60
2022/06/05 04:01:40;;;;;;;15.40;9.48;;;;;;;14.69;80.56;101696.69;6239831;22;20034;-60
2022/06/05 04:04:05;;;;;;;17.80;10.55;;;;;;;14.47;81.13;101682.44;6267556;22;19999;-60
2022/06/05 04:06:31;;;;;;;15.15;9.40;;;;;;;14.77;79.94;101695.47;6269400;22;20008;-61
2022/06/05 04:08:59;;;;;;;16.63;10.30;;;;;;;14.88;79.33;101689.81;6267469;22;20008;-60
2022/06/05 04:11:24;;;;;;;12.73;9.93;;;;;;;14.77;79.52;101691.94;6268701;22;19988;-61
2022/06/05 04:13:50;;;;;;;19.75;10.57;;;;;;;14.63;79.96;101695.13;6268355;22;20003;-61
2022/06/05 04:16:25;;;;;;;15.27;10.30;;;;;;;14.65;79.96;101702.09;6265978;22;20026;-60
2022/06/05 04:18:52;;;;;;;20.55;10.32;;;;;;;14.52;80.28;101695.53;6268567;22;20020;-62
2022/06/05 04:21:20;;;;;;;23.65;11.13;;;;;;;14.58;80.51;101700.63;6267794;22;20000;-61
2022/06/05 04:23:46;;;;;;;14.80;10.48;;;;;;;14.61;80.09;101691.66;6268378;22;20027;-60
2022/06/05 04:26:14;;;;;;;14.70;10.70;;;;;;;14.37;80.86;101679.28;6267426;22;20006;-59
2022/06/05 04:28:40;;;;;;;16.50;10.82;;;;;;;14.45;80.72;101686.06;6267824;22;20007;-62
2022/06/05 04:31:24;;;;;;;17.98;10.00;;;;;;;14.65;80.04;101691.50;6266893;22;19999;-62
2022/06/05 04:33:50;;;;;;;17.85;11.20;;;;;;;14.72;80.44;101683.31;6267824;22;20003;-61
2022/06/05 04:36:16;;;;;;;16.88;11.35;;;;;;;14.78;80.19;101693.72;6268926;22;20484;-61
2022/06/05 04:38:41;;;;;;;17.35;10.70;;;;;;;14.79;79.74;101687.50;6269163;22;20007;-61
2022/06/05 04:41:07;;;;;;;19.27;11.65;;;;;;;14.58;81.46;101687.34;6270437;22;20374;-61
2022/06/05 04:43:33;;;;;;;17.42;11.20;;;;;;;14.64;81.30;101687.13;6270231;22;20000;-61
2022/06/05 04:45:58;;;;;;;23.05;11.43;;;;;;;14.45;81.83;101670.16;6269644;22;20103;-60
2022/06/05 04:48:24;;;;;;;19.27;11.93;;;;;;;14.42;82.29;101673.78;6270235;22;20027;-60
2022/06/05 04:50:49;;;;;;;15.95;11.80;;;;;;;14.46;82.17;101664.81;6268934;22;20000;-60
2022/06/05 04:53:14;;;;;;;15.68;11.65;;;;;;;14.23;83.02;101649.72;6268281;22;20004;-60
2022/06/05 04:55:40;;;;;;;22.00;11.95;;;;;;;14.41;82.71;101648.19;6270118;22;20004;-61
2022/06/05 04:58:05;;;;;;;22.60;12.18;;;;;;;14.49;82.48;101650.56;6269937;22;20003;-60
2022/06/05 05:00:30;;;;;;;20.65;12.75;;;;;;;14.38;82.47;101646.53;6269147;22;20004;-59
2022/06/05 05:02:56;;;;;;;19.38;12.38;;;;;;;14.42;82.46;101649.91;6271022;22;20000;-59
2022/06/05 05:05:21;;;;;;;18.48;11.18;;;;;;;14.58;81.99;101644.91;6269776;22;20019;-61
2022/06/05 05:07:47;;;;;;;17.48;12.13;;;;;;;14.64;81.74;101660.59;6269951;22;20015;-60
2022/06/05 05:10:12;;;;;;;18.25;12.57;;;;;;;14.72;81.59;101662.09;6269601;22;20008;-60
2022/06/05 05:12:39;;;;;;;20.00;12.77;;;;;;;14.64;82.38;101657.94;6270566;22;20000;-61
2022/06/05 05:15:05;;;;;;;24.65;12.30;;;;;;;14.66;82.01;101658.75;6269478;22;20000;-62
2022/06/05 05:17:30;;;;;;;17.77;12.57;;;;;;;14.44;82.84;101657.81;6270493;22;20438;-60
2022/06/05 05:19:57;;;;;;;22.83;12.88;;;;;;;14.64;82.55;101655.31;6269753;22;20008;-61
2022/06/05 05:22:22;;;;;;;16.40;11.02;;;;;;;14.84;81.19;101645.72;6243027;22;20398;-60
2022/06/05 05:24:48;;;;;;;21.48;12.65;;;;;;;14.57;82.56;101632.56;6269328;22;20004;-61
2022/06/05 05:27:13;;;;;;;20.60;12.35;;;;;;;14.47;82.99;101626.75;6270125;22;20019;-61
2022/06/05 05:29:40;;;;;;;19.27;12.30;;;;;;;14.70;82.30;101627.66;6269726;22;20444;-61
2022/06/05 05:32:06;;;;;;;20.25;12.73;;;;;;;14.80;81.88;101620.22;6269469;22;20071;-62
2022/06/05 05:34:32;;;;;;;19.13;12.23;;;;;;;14.47;82.91;101605.53;6270007;22;20382;-65
2022/06/05 05:36:58;;;;;;;20.50;12.80;;;;;;;14.54;82.94;101584.94;6270006;22;20498;-61
2022/06/05 05:42:09;;;;;;;20.10;12.63;;;;;;;14.85;82.10;101593.53;6268642;22;20038;-62
2022/06/05 05:44:39;;;;;;;20.08;12.90;;;;;;;14.97;81.80;101605.44;6268876;22;20003;-61
2022/06/05 05:47:06;;;;;;;;;;;;;;;15.04;82.04;101612.22;6242442;22;20000;-61
2022/06/05 05:49:31;;;;;;;16.92;11.70;;;;;;;15.13;81.46;101622.47;6269602;22;19976;-62
2022/06/05 05:51:57;;;;;;;19.77;13.02;;;;;;;15.27;80.83;101621.88;6269418;22;20416;-61
2022/06/05 05:54:22;;;;;;;15.95;11.80;;;;;;;15.27;81.21;101626.34;6269693;22;20424;-62
2022/06/05 05:56:47;;;;;;;21.90;12.95;;;;;;;15.21;81.01;101631.91;6269063;22;20413;-62
2022/06/05 05:59:13;;;;;;;21.23;12.68;;;;;;;15.27;80.95;101626.34;6268040;22;20007;-60
2022/06/05 06:01:38;;;;;;;23.60;13.07;;;;;;;15.28;80.58;101622.75;6241631;22;20010;-60
2022/06/05 06:04:03;;;;;;;20.38;12.75;;;;;;;15.31;80.52;101619.97;6266836;22;20075;-61
2022/06/05 06:06:31;;;;;;;21.90;12.10;;;;;;;15.37;80.22;101626.81;6240312;22;20008;-60
2022/06/05 06:08:56;;;;;;;15.43;12.57;;;;;;;15.34;80.28;101621.63;6269231;22;20004;-62
2022/06/05 06:11:23;;;;;;;19.55;12.40;;;;;;;15.38;80.28;101616.13;6268649;22;20437;-62
2022/06/05 06:13:48;;;;;;;17.40;11.18;;;;;;;15.35;80.21;101612.75;6268673;22;20463;-62
2022/06/05 06:16:14;;;;;;;18.15;11.75;;;;;;;15.36;80.37;101620.66;6266622;22;19996;-60
2022/06/05 06:18:39;;;;;;;21.45;12.27;;;;;;;15.26;80.71;101620.16;6269436;22;20035;-61
2022/06/05 06:21:04;;;;;;;18.38;12.40;;;;;;;15.37;80.02;101621.50;6241319;22;20000;-64
2022/06/05 06:23:30;;;;;;;15.95;11.75;;;;;;;15.48;79.77;101623.72;6241970;22;20010;-61
2022/06/05 06:25:56;;;;;;;18.50;12.48;;;;;;;15.34;80.17;101617.19;6269414;22;20010;-62
2022/06/05 06:28:21;;;;;;;21.35;11.75;;;;;;;15.34;79.96;101622.50;6267881;22;20011;-63
2022/06/05 06:30:47;;;;;;;21.35;12.90;;;;;;;15.45;79.60;101615.88;6239850;22;20308;-62
2022/06/05 06:33:13;;;;;;;20.88;11.50;;;;;;;15.34;79.62;101611.88;6268104;22;19999;-62
2022/06/05 06:35:38;;;;;;;20.63;12.95;;;;;;;15.24;80.12;101613.19;6265412;22;20422;-62
2022/06/05 06:38:04;;;;;;;16.92;11.43;;;;;;;15.38;79.81;101609.97;6268245;22;20056;-61
2022/06/05 06:40:30;;;;;;;17.08;12.43;;;;;;;15.25;80.34;101612.25;6269187;22;20007;-61
2022/06/05 06:42:56;;;;;;;19.25;12.98;;;;;;;15.34;80.26;101621.63;6268372;22;20004;-61
2022/06/05 06:45:22;;;;;;;18.25;11.90;;;;;;;15.38;80.37;101613.47;6266540;22;20030;-60
2022/06/05 06:47:48;;;;;;;18.35;12.80;;;;;;;15.29;80.63;101608.53;6268197;22;20007;-60
2022/06/05 06:50:14;;;;;;;20.08;12.93;;;;;;;15.49;80.04;101612.16;6268151;22;20007;-61
2022/06/05 06:52:39;;;;;;;26.50;13.43;;;;;;;15.46;80.15;101606.97;6267426;22;20014;-62
2022/06/05 06:55:07;;;;;;;18.30;12.25;;;;;;;15.46;80.57;101605.19;6267481;22;20027;-61
2022/06/05 06:57:32;;;;;;;19.40;12.82;;;;;;;15.40;80.77;101603.66;6267918;22;20003;-63
2022/06/05 06:59:58;;;;;;;16.35;12.13;;;;;;;15.39;80.72;101609.03;6266153;22;20022;-61
2022/06/05 07:02:23;;;;;;;21.05;13.95;;;;;;;15.28;81.22;101601.53;6269189;22;20059;-61
2022/06/05 07:04:48;;;;;;;21.67;13.50;;;;;;;15.14;81.37;101599.47;6267496;22;20030;-61
2022/06/05 07:07:14;;;;;;;24.42;13.48;;;;;;;15.25;81.49;101593.69;6266894;22;20411;-62
2022/06/05 07:09:39;;;;;;;17.23;12.68;;;;;;;15.22;81.55;101584.06;6241932;22;20011;-60
2022/06/05 07:12:05;;;;;;;22.48;14.18;;;;;;;15.33;81.36;101582.75;6267291;22;20003;-61
2022/06/05 07:14:32;;;;;;;19.25;13.05;;;;;;;15.57;80.29;101564.03;6241897;22;20000;-61
2022/06/05 07:16:57;;;;;;;17.67;11.35;;;;;;;15.61;80.31;101560.31;6267934;22;20375;-62
2022/06/05 07:19:22;;;;;;;17.35;12.20;;;;;;;15.82;79.56;101557.63;6267002;22;20324;-60
2022/06/05 07:21:48;;;;;;;15.63;12.15;;;;;;;15.98;79.04;101542.75;6268053;22;20054;-63
2022/06/05 07:24:13;;;;;;;18.90;12.98;;;;;;;15.98;79.22;101541.91;6267273;22;20070;-61
2022/06/05 07:26:39;;;;;;;19.27;11.98;;;;;;;16.02;78.74;101533.69;6267962;22;20038;-62
2022/06/05 07:29:04;;;;;;;16.83;13.25;;;;;;;16.00;79.14;101529.38;6265737;22;20050;-61
2022/06/05 07:31:31;;;;;;;15.88;12.32;;;;;;;16.12;79.12;101525.31;6267294;22;20010;-61
2022/06/05 07:33:57;;;;;;;21.90;13.23;;;;;;;16.19;78.85;101521.41;6265837;22;20000;-60
2022/06/05 07:36:25;;;;;;;18.77;12.27;;;;;;;16.32;78.74;101519.06;6266943;22;20123;-63
2022/06/05 07:38:50;;;;;;;17.02;11.95;;;;;;;16.41;78.25;101512.44;6266857;22;19999;-61
2022/06/05 07:41:26;;;;;;;18.55;12.57;;;;;;;16.40;77.93;101506.25;6267340;22;20046;-61
2022/06/05 07:43:51;;;;;;;18.30;11.82;;;;;;;16.58;77.29;101506.28;6265636;22;19996;-61
2022/06/05 07:46:17;;;;;;;14.07;11.13;;;;;;;16.92;76.39;101501.94;6266990;22;20465;-61
2022/06/05 07:48:42;;;;;;;18.58;11.18;;;;;;;17.25;75.28;101511.00;6268032;22;20026;-61
2022/06/05 07:56:39;;;;;;;17.95;11.77;;;;;;;17.45;75.12;101498.44;6268907;22;20087;-60
2022/06/05 07:59:05;;;;;;;17.90;11.52;;;;;;;17.55;74.37;101498.84;6266053;22;20035;-60
2022/06/05 08:01:30;;;;;;;20.20;11.73;;;;;;;17.88;73.88;101495.28;6268367;22;20007;-60
2022/06/05 08:03:56;;;;;;;15.05;11.18;;;;;;;17.93;74.04;101489.69;6267588;22;20000;-61
2022/06/05 08:06:21;;;;;;;16.85;10.70;;;;;;;18.00;73.48;101482.22;6266784;22;20012;-60
2022/06/05 08:08:47;;;;;;;16.23;10.45;;;;;;;18.05;72.85;101470.34;6268932;22;20004;-62
2022/06/05 08:11:12;;;;;;;14.35;10.00;;;;;;;18.09;73.26;101464.84;6267795;22;20011;-61
2022/06/05 08:13:38;;;;;;;17.10;11.35;;;;;;;18.34;72.16;101453.69;6269339;22;20063;-60
2022/06/05 08:16:03;;;;;;;14.43;9.95;;;;;;;18.97;71.30;101452.75;6270685;22;20432;-60
2022/06/05 08:18:29;;;;;;;13.98;10.00;;;;;;;19.01;71.19;101447.16;6270168;22;20328;-61
2022/06/05 08:20:54;;;;;;;17.80;10.63;;;;;;;19.32;69.95;101445.31;6270599;22;20355;-61
2022/06/05 08:23:20;;;;;;;15.60;9.85;;;;;;;19.48;68.61;101449.72;6269726;22;20000;-59
2022/06/05 08:25:45;;;;;;;13.90;10.30;;;;;;;19.98;68.07;101451.09;6268878;22;20000;-62
2022/06/05 08:28:11;;;;;;;15.25;9.23;;;;;;;20.45;65.88;101459.66;6268437;22;19999;-61
2022/06/05 08:30:38;;;;;;;13.88;8.82;;;;;;;20.67;65.53;101444.84;6242053;22;20004;-60
2022/06/05 08:33:03;;;;;;;13.10;9.07;;;;;;;20.83;64.41;101455.38;6242132;22;19999;-63
2022/06/05 08:35:29;;;;;;;13.25;8.35;;;;;;;21.24;64.57;101453.50;6268622;22;20007;-60
2022/06/05 08:43:37;;;;;;;12.60;8.27;;;;;;;21.76;61.30;101452.63;6270156;22;20450;-60
2022/06/05 08:46:10;;;;;;;10.00;7.43;;;;;;;22.28;61.44;101452.47;6243069;22;20103;-61
2022/06/05 08:48:47;;;;;;;10.65;8.13;;;;;;;22.22;60.97;101441.19;6268755;22;20110;-61
2022/06/05 08:51:30;;;;;;;10.43;7.45;;;;;;;22.05;62.17;101455.88;6241849;22;20004;-62
2022/06/05 08:54:04;;;;;;;12.02;8.60;;;;;;;22.01;60.63;101450.84;6268862;22;20008;-60
2022/06/05 08:56:36;;;;;;;11.30;7.88;;;;;;;22.10;61.24;101452.88;6242201;22;20332;-60
2022/06/05 08:59:25;;;;;;;11.35;6.80;;;;;;;22.63;59.55;101445.44;6267915;22;20018;-62
2022/06/05 09:01:57;;;;;;;10.38;7.85;;;;;;;22.69;59.90;101439.59;6239952;22;20793;-61
2022/06/05 09:04:50;;;;;;;8.63;6.80;;;;;;;23.07;58.13;101441.16;6242040;22;19995;-61
2022/06/05 09:07:19;;;;;;;9.10;6.93;;;;;;;22.94;59.78;101441.25;6269365;22;20016;-61
2022/06/05 09:09:53;;;;;;;10.60;7.18;;;;;;;23.26;59.24;101449.63;6241765;22;20004;-60
2022/06/05 09:12:33;;;;;;;10.55;7.68;;;;;;;23.28;59.47;101453.91;6241668;22;20004;-61
2022/06/05 09:15:10;;;;;;;13.50;7.55;;;;;;;23.48;58.04;101457.72;6252370;22;20482;-60
2022/06/05 09:17:37;;;;;;;12.63;7.20;;;;;;;23.76;57.94;101448.41;6215166;22;20458;-62
2022/06/05 09:20:03;;;;;;;10.52;7.28;;;;;;;23.93;57.56;101455.13;6244845;22;20014;-61
2022/06/05 09:22:38;;;;;;;10.95;7.57;;;;;;;23.91;57.35;101459.75;6245160;22;20012;-60
2022/06/05 09:25:23;;;;;;;12.25;7.10;;;;;;;24.37;55.25;101452.44;6217745;22;20004;-59
2022/06/05 09:28:07;;;;;;;9.65;7.07;;;;;;;24.09;57.15;101457.41;6244641;22;20003;-60
2022/06/05 09:30:41;;;;;;;7.70;6.80;;;;;;;24.07;56.48;101459.34;6242477;22;20099;-61
2022/06/05 09:33:19;;;;;;;9.48;7.20;;;;;;;24.14;56.96;101457.91;6245627;22;20014;-60
2022/06/05 09:35:54;;;;;;;8.60;6.55;;;;;;;24.26;56.19;101469.47;6244050;22;20000;-63
2022/06/05 09:38:45;;;;;;;8.05;6.70;;;;;;;24.51;54.02;101466.59;6243051;22;20031;-60
2022/06/05 09:41:10;;;;;;;9.13;7.38;;;;;;;24.36;55.09;101466.91;6217150;22;20015;-59
2022/06/05 09:44:13;;;;;;;10.05;7.63;;;;;;;24.25;55.08;101458.84;6242803;22;20004;-62
2022/06/05 09:46:44;;;;;;;10.10;6.97;;;;;;;24.32;55.77;101460.06;6244954;22;20012;-60
2022/06/05 09:49:16;;;;;;;9.57;7.80;;;;;;;24.67;55.63;101461.63;6243331;22;20396;-60
2022/06/05 09:51:43;;;;;;;13.63;8.50;;;;;;;24.79;53.39;101461.56;6217651;22;20004;-60
2022/06/05 09:54:15;;;;;;;12.15;7.75;;;;;;;24.91;53.89;101456.97;6245130;22;20079;-61
2022/06/05 09:59:53;;;;;;;14.32;8.15;;;;;;;25.09;53.37;101449.16;6241790;22;20105;-60
2022/06/05 10:02:21;;;;;;;9.80;8.25;;;;;;;24.64;54.13;101453.78;6217158;22;20207;-62
2022/06/05 10:04:47;;;;;;;11.00;7.47;;;;;;;24.78;53.48;101452.63;6191178;22;20006;-60
2022/06/05 10:07:46;;;;;;;10.73;7.47;;;;;;;24.93;53.25;101445.09;6240892;22;20251;-61
2022/06/05 10:10:19;;;;;;;10.18;7.97;;;;;;;25.20;51.87;101445.53;6219548;22;20069;-60
2022/06/05 10:12:54;;;;;;;10.40;8.15;;;;;;;25.12;52.99;101435.41;6242651;22;20004;-60
2022/06/05 10:15:31;;;;;;;11.10;8.38;;;;;;;24.83;54.32;101444.16;6267326;22;20018;-61
2022/06/05 10:18:22;;;;;;;8.27;6.78;;;;;;;25.03;53.79;101433.50;6242167;22;20255;-61
2022/06/05 10:20:54;;;;;;;12.45;8.15;;;;;;;25.22;52.81;101439.00;6226723;22;20065;-60
2022/06/05 10:23:25;;;;;;;9.43;8.27;;;;;;;25.06;53.20;101430.53;6267068;22;20011;-60
2022/06/05 10:25:56;;;;;;;10.88;8.43;;;;;;;25.17;53.15;101425.09;6267831;22;20003;-62
2022/06/05 10:28:26;;;;;;;11.23;8.88;;;;;;;25.15;53.07;101429.75;6239127;22;20132;-59
2022/06/05 10:30:59;;;;;;;12.65;9.30;;;;;;;24.99;53.83;101427.53;6241059;22;20011;-61
2022/06/05 10:33:43;;;;;;;11.40;8.88;;;;;;;24.93;54.94;101418.16;6241171;22;20566;-61
2022/06/05 10:36:20;;;;;;;12.65;9.85;;;;;;;24.62;56.04;101423.44;6267657;22;20424;-61
2022/06/05 10:39:04;;;;;;;11.88;10.00;;;;;;;24.46;56.67;101424.75;6269498;22;20086;-61
2022/06/05 10:41:43;;;;;;;15.23;10.90;;;;;;;24.22;57.50;101409.66;6268604;22;20525;-60
2022/06/05 10:44:11;;;;;;;;;;;;;;;24.20;57.65;101405.41;6238683;22;20006;-60
2022/06/05 10:46:39;;;;;;;13.88;10.43;;;;;;;24.12;57.44;101408.69;6242192;22;19907;-60
2022/06/05 10:49:17;;;;;;;14.68;11.07;;;;;;;23.96;58.75;101409.94;6239613;22;19991;-62
2022/06/05 10:51:48;;;;;;;12.75;10.35;;;;;;;24.03;58.65;101413.00;6241787;22;20488;-62
2022/06/05 10:54:44;;;;;;;11.93;9.65;;;;;;;23.83;59.81;101409.25;6268583;22;20457;-62
2022/06/05 10:57:27;;;;;;;12.60;10.93;;;;;;;24.18;58.34;101408.22;6240769;22;20027;-61
2022/06/05 11:00:02;;;;;;;12.43;10.00;;;;;;;24.39;57.20;101410.09;6241043;22;20067;-61
2022/06/05 11:02:51;;;;;;;13.98;9.80;;;;;;;24.35;58.16;101408.66;6242214;22;20048;-60
2022/06/05 11:05:31;;;;;;;;;;;;;;;24.31;58.30;101401.78;6269298;22;20015;-61
2022/06/05 11:08:05;;;;;;;13.18;10.55;;;;;;;24.25;57.43;101405.84;6268875;22;20100;-61
2022/06/05 11:13:42;;;;;;;14.50;10.30;;;;;;;23.83;58.96;101396.66;6267999;22;20101;-61
2022/06/05 11:16:23;;;;;;;15.02;10.77;;;;;;;23.65;59.73;101390.94;6266853;22;20703;-61
2022/06/05 11:19:20;;;;;;;13.82;9.90;;;;;;;23.34;60.77;101390.72;6241090;22;20014;-61
2022/06/05 11:21:48;;;;;;;16.65;10.60;;;;;;;23.35;60.05;101387.03;6240928;22;20018;-61
2022/06/05 11:24:30;;;;;;;19.55;11.88;;;;;;;22.84;62.21;101382.00;6240193;22;19999;-62
2022/06/05 11:27:11;;;;;;;12.20;10.30;;;;;;;23.18;60.17;101385.72;6268597;22;20023;-61
2022/06/05 11:29:46;;;;;;;18.73;11.68;;;;;;;23.06;60.75;101380.31;6239883;22;20004;-60
2022/06/05 11:32:21;;;;;;;12.90;10.80;;;;;;;23.12;60.97;101381.69;6241107;22;20483;-60
2022/06/05 11:34:55;;;;;;;13.10;10.65;;;;;;;22.99;61.06;101383.63;6268936;22;20022;-61
2022/06/05 11:37:37;;;;;;;17.77;12.18;;;;;;;22.53;63.57;101378.13;6267332;22;20008;-61
2022/06/05 11:40:24;;;;;;;17.83;11.40;;;;;;;22.61;62.86;101388.31;6241280;22;20432;-62
2022/06/05 11:42:58;;;;;;;19.50;12.52;;;;;;;22.66;62.64;101384.28;6267608;22;20305;-60
2022/06/05 11:46:01;;;;;;;16.00;13.00;;;;;;;22.93;62.58;101385.81;6267199;22;20007;-61
2022/06/05 11:48:35;;;;;;;13.48;10.85;;;;;;;22.68;64.10;101382.34;6269391;22;20004;-62
2022/06/05 11:51:21;;;;;;;16.63;12.40;;;;;;;22.22;64.77;101384.84;6241138;22;20082;-61
2022/06/05 11:54:05;;;;;;;16.60;13.80;;;;;;;21.90;66.29;101392.59;6268431;22;20082;-61
2022/06/05 11:56:36;;;;;;;18.33;13.85;;;;;;;;;;6267846;22;20010;-61